createdAt,value
2019-04-06T00:00:14.844Z,35.63
2019-04-06T00:02:48.645Z,35.62
2019-04-06T00:05:24.389Z,35.61
2019-04-06T00:07:58.146Z,35.61
2019-04-06T00:10:32.154Z,35.61
2019-04-06T00:13:05.947Z,35.60
2019-04-06T00:15:39.737Z,35.58
2019-04-06T00:18:13.580Z,35.57
2019-04-06T00:20:47.369Z,35.56
2019-04-06T00:23:21.081Z,35.53
2019-04-06T00:25:54.847Z,35.54
2019-04-06T00:28:28.794Z,35.52
2019-04-06T00:31:12.862Z,35.49
2019-04-06T00:33:47.815Z,35.47
2019-04-06T00:36:21.588Z,35.48
2019-04-06T00:38:55.329Z,35.46
2019-04-06T00:41:29.163Z,35.46
2019-04-06T00:44:02.847Z,35.45
2019-04-06T00:46:36.675Z,35.45
2019-04-06T00:49:10.528Z,35.43
2019-04-06T00:51:44.329Z,35.44
2019-04-06T00:54:18.131Z,35.43
2019-04-06T00:56:52.320Z,35.43
2019-04-06T00:59:26.101Z,35.42
2019-04-06T01:01:59.930Z,35.41
2019-04-06T01:04:33.540Z,35.40
2019-04-06T01:07:07.365Z,35.40
2019-04-06T01:09:41.111Z,35.39
2019-04-06T01:12:14.980Z,35.36
2019-04-06T01:14:48.719Z,35.36
2019-04-06T01:17:23.309Z,35.24
2019-04-06T01:19:57.111Z,35.33
2019-04-06T01:22:31.414Z,35.32
2019-04-06T01:25:05.734Z,35.31
2019-04-06T01:27:39.463Z,35.32
2019-04-06T01:30:13.245Z,35.32
2019-04-06T01:32:47.131Z,35.32
2019-04-06T01:35:21.472Z,35.34
2019-04-06T01:37:55.220Z,35.33
2019-04-06T01:40:29.086Z,35.32
2019-04-06T01:43:02.893Z,35.30
2019-04-06T01:45:36.623Z,35.29
2019-04-06T01:48:10.514Z,35.29
2019-04-06T01:50:44.233Z,35.27
2019-04-06T01:53:18.016Z,35.26
2019-04-06T01:55:51.789Z,35.27
2019-04-06T01:58:25.621Z,35.26
2019-04-06T02:01:16.375Z,35.25
2019-04-06T02:03:51.278Z,35.24
2019-04-06T02:06:25.065Z,35.22
2019-04-06T02:08:58.801Z,35.21
2019-04-06T02:11:33.011Z,35.23
2019-04-06T02:14:08.071Z,35.19
2019-04-06T02:16:41.924Z,35.19
2019-04-06T02:19:15.667Z,35.17
2019-04-06T02:21:49.403Z,35.15
2019-04-06T02:24:23.164Z,35.16
2019-04-06T02:26:58.286Z,35.14
2019-04-06T02:29:32.393Z,35.12
2019-04-06T02:32:42.093Z,35.11
2019-04-06T02:35:25.581Z,35.11
2019-04-06T02:38:18.127Z,35.08
2019-04-06T02:41:20.170Z,35.07
2019-04-06T02:43:53.882Z,35.05
2019-04-06T02:46:30.255Z,35.05
2019-04-06T02:49:03.238Z,35.02
2019-04-06T02:51:37.150Z,35.00
2019-04-06T02:54:10.961Z,35.01
2019-04-06T02:56:47.318Z,35.07
2019-04-06T02:59:20.189Z,35.02
2019-04-06T03:01:54.034Z,35.02
2019-04-06T03:04:27.891Z,35.00
2019-04-06T03:07:01.757Z,34.99
2019-04-06T03:09:35.481Z,34.99
2019-04-06T03:12:09.222Z,34.98
2019-04-06T03:14:44.587Z,35.01
2019-04-06T03:17:18.527Z,35.05
2019-04-06T03:19:52.432Z,34.98
2019-04-06T03:22:26.259Z,34.97
2019-04-06T03:25:00.275Z,34.98
2019-04-06T03:27:34.039Z,34.93
2019-04-06T03:30:08.579Z,34.91
2019-04-06T03:32:42.699Z,34.91
2019-04-06T03:35:16.497Z,35.02
2019-04-06T03:37:50.255Z,33.94
2019-04-06T03:40:24.029Z,34.30
2019-04-06T03:42:57.885Z,34.48
2019-04-06T03:45:31.884Z,34.64
2019-04-06T03:48:05.560Z,34.76
2019-04-06T03:50:39.312Z,34.92
2019-04-06T03:53:13.079Z,34.97
2019-04-06T03:55:46.902Z,35.01
2019-04-06T03:58:20.835Z,34.93
2019-04-06T04:00:54.653Z,35.00
2019-04-06T04:03:29.825Z,35.00
2019-04-06T04:06:03.686Z,34.96
2019-04-06T04:08:37.584Z,34.93
2019-04-06T04:11:11.255Z,35.01
2019-04-06T04:13:44.991Z,34.91
2019-04-06T04:16:18.624Z,34.94
2019-04-06T04:18:52.343Z,34.89
2019-04-06T04:21:25.985Z,34.94
2019-04-06T04:23:59.812Z,34.92
2019-04-06T04:26:33.423Z,34.92
2019-04-06T04:29:07.329Z,34.88
2019-04-06T04:31:41.852Z,34.87
2019-04-06T04:34:15.667Z,34.88
2019-04-06T04:36:49.454Z,34.83
2019-04-06T04:39:23.401Z,34.82
2019-04-06T04:41:57.059Z,34.80
2019-04-06T04:44:30.795Z,34.79
2019-04-06T04:47:04.542Z,34.78
2019-04-06T04:49:38.375Z,34.78
2019-04-06T04:52:12.466Z,34.75
2019-04-06T04:54:46.293Z,34.73
2019-04-06T04:57:20.423Z,34.71
2019-04-06T04:59:54.168Z,34.69
2019-04-06T05:02:28.169Z,34.66
2019-04-06T05:05:02.207Z,34.64
2019-04-06T05:07:36.154Z,34.65
2019-04-06T05:10:10.095Z,34.67
2019-04-06T05:12:43.989Z,34.65
2019-04-06T05:15:31.239Z,34.58
2019-04-06T05:18:05.127Z,34.61
2019-04-06T05:20:38.737Z,34.59
2019-04-06T05:23:12.545Z,34.58
2019-04-06T05:25:46.287Z,34.58
2019-04-06T05:28:20.025Z,34.53
2019-04-06T05:30:53.822Z,34.53
2019-04-06T05:33:27.552Z,34.51
2019-04-06T05:36:01.487Z,34.49
2019-04-06T05:38:35.264Z,34.47
2019-04-06T05:41:09.047Z,34.48
2019-04-06T05:43:42.867Z,34.48
2019-04-06T05:46:16.864Z,34.43
2019-04-06T05:48:50.599Z,34.42
2019-04-06T05:51:24.311Z,34.37
2019-04-06T05:53:58.237Z,34.42
2019-04-06T05:56:32.357Z,34.43
2019-04-06T05:59:08.247Z,34.43
2019-04-06T06:01:42.187Z,34.36
2019-04-06T06:04:17.025Z,34.34
2019-04-06T06:06:50.775Z,34.51
2019-04-06T06:09:24.654Z,34.32
2019-04-06T06:11:58.462Z,34.43
2019-04-06T06:14:34.058Z,34.61
2019-04-06T06:17:07.843Z,34.49
2019-04-06T06:19:41.907Z,34.80
2019-04-06T06:22:17.337Z,34.57
2019-04-06T06:24:51.105Z,34.54
2019-04-06T06:27:24.929Z,34.53
2019-04-06T06:29:58.867Z,34.53
2019-04-06T06:32:33.349Z,34.52
2019-04-06T06:35:07.259Z,34.99
2019-04-06T06:37:40.999Z,34.61
2019-04-06T06:40:14.761Z,35.13
2019-04-06T06:42:48.479Z,34.78
2019-04-06T06:45:22.255Z,34.53
2019-04-06T06:47:56.249Z,34.80
2019-04-06T06:50:30.066Z,34.54
2019-04-06T06:53:03.788Z,34.52
2019-04-06T06:55:37.633Z,34.52
2019-04-06T06:58:24.198Z,34.51
2019-04-06T07:00:49.142Z,34.50
2019-04-06T07:03:23.991Z,35.03
2019-04-06T07:05:57.850Z,34.79
2019-04-06T07:08:33.707Z,34.71
2019-04-06T07:11:09.553Z,34.74
2019-04-06T07:13:43.427Z,34.66
2019-04-06T07:16:17.206Z,34.71
2019-04-06T07:18:51.523Z,34.97
2019-04-06T07:21:25.277Z,34.96
2019-04-06T07:23:59.109Z,35.04
2019-04-06T07:26:32.833Z,35.08
2019-04-06T07:29:06.893Z,35.09
2019-04-06T07:31:40.849Z,35.19
2019-04-06T07:34:14.464Z,35.09
2019-04-06T07:36:48.197Z,35.39
2019-04-06T07:39:22.317Z,35.50
2019-04-06T07:41:56.038Z,35.42
2019-04-06T07:44:30.201Z,35.52
2019-04-06T07:47:03.973Z,36.13
2019-04-06T07:49:37.848Z,35.48
2019-04-06T07:52:11.834Z,35.41
2019-04-06T07:54:45.519Z,35.49
2019-04-06T07:57:19.149Z,35.01
2019-04-06T07:59:52.947Z,34.79
2019-04-06T08:02:26.621Z,34.66
2019-04-06T08:05:00.541Z,34.63
2019-04-06T08:07:34.445Z,34.43
2019-04-06T08:10:08.191Z,34.29
2019-04-06T08:12:42.219Z,34.39
2019-04-06T08:15:16.439Z,34.44
2019-04-06T08:17:50.097Z,34.50
2019-04-06T08:20:23.923Z,34.57
2019-04-06T08:22:57.665Z,34.61
2019-04-06T08:25:31.585Z,34.67
2019-04-06T08:28:05.293Z,34.74
2019-04-06T08:30:45.441Z,34.74
2019-04-06T08:33:14.415Z,34.86
2019-04-06T08:35:48.250Z,34.64
2019-04-06T08:38:22.199Z,34.98
2019-04-06T08:40:57.394Z,35.01
2019-04-06T08:43:31.127Z,35.01
2019-04-06T08:46:05.060Z,34.99
2019-04-06T08:48:38.953Z,34.91
2019-04-06T08:51:12.688Z,34.98
2019-04-06T08:53:46.319Z,35.01
2019-04-06T08:56:20.056Z,35.10
2019-04-06T08:58:53.909Z,35.06
2019-04-06T09:01:27.909Z,35.11
2019-04-06T09:04:01.911Z,35.05
2019-04-06T09:06:35.800Z,35.04
2019-04-06T09:09:09.745Z,35.00
2019-04-06T09:11:43.545Z,35.03
2019-04-06T09:14:17.710Z,35.03
2019-04-06T09:16:51.550Z,35.00
2019-04-06T09:19:25.365Z,34.97
2019-04-06T09:21:59.135Z,34.97
2019-04-06T09:24:33.032Z,34.89
2019-04-06T09:27:06.803Z,34.89
2019-04-06T09:29:40.756Z,34.90
2019-04-06T09:32:14.686Z,34.85
2019-04-06T09:34:48.528Z,34.83
2019-04-06T09:37:22.402Z,34.82
2019-04-06T09:39:56.244Z,34.94
2019-04-06T09:42:30.098Z,34.92
2019-04-06T09:45:22.685Z,34.92
2019-04-06T09:48:01.304Z,34.92
2019-04-06T09:50:54.883Z,33.70
2019-04-06T09:53:48.068Z,33.96
2019-04-06T09:56:43.714Z,34.20
2019-04-06T09:59:35.938Z,34.26
2019-04-06T10:02:21.368Z,34.29
2019-04-06T10:05:10.719Z,34.44
2019-04-06T10:07:57.271Z,34.48
2019-04-06T10:10:38.585Z,34.46
2019-04-06T10:13:43.713Z,34.49
2019-04-06T10:16:37.643Z,34.52
2019-04-06T10:19:22.341Z,34.51
2019-04-06T10:22:21.823Z,34.50
2019-04-06T10:25:10.954Z,34.51
2019-04-06T10:28:03.110Z,34.51
2019-04-06T10:31:05.824Z,34.84
2019-04-06T10:34:04.763Z,34.59
2019-04-06T10:36:45.081Z,34.59
2019-04-06T10:39:44.793Z,34.62
2019-04-06T10:42:31.599Z,34.63
2019-04-06T10:45:30.595Z,34.66
2019-04-06T10:48:20.534Z,34.66
2019-04-06T10:51:12.019Z,35.01
2019-04-06T10:54:19.812Z,34.67
2019-04-06T10:57:03.914Z,34.62
2019-04-06T11:00:03.552Z,34.61
2019-04-06T11:02:57.805Z,34.67
2019-04-06T11:05:43.429Z,34.73
2019-04-06T11:08:42.651Z,34.74
2019-04-06T11:11:35.248Z,34.74
2019-04-06T11:14:31.517Z,34.74
2019-04-06T11:17:36.292Z,34.74
2019-04-06T11:20:31.991Z,34.74
2019-04-06T11:23:27.633Z,34.70
2019-04-06T11:26:26.917Z,34.72
2019-04-06T11:29:15.232Z,34.71
2019-04-06T11:32:06.465Z,34.69
2019-04-06T11:34:51.023Z,34.71
2019-04-06T11:37:43.623Z,34.69
2019-04-06T11:40:33.855Z,34.67
2019-04-06T11:43:22.765Z,34.68
2019-04-06T11:46:24.015Z,34.67
2019-04-06T11:49:22.827Z,34.68
2019-04-06T11:52:09.173Z,34.66
2019-04-06T11:55:01.659Z,34.68
2019-04-06T11:57:57.034Z,34.68
2019-04-06T12:00:43.314Z,34.69
2019-04-06T12:03:42.100Z,34.66
2019-04-06T12:06:42.343Z,34.65
2019-04-06T12:09:31.643Z,34.65
2019-04-06T12:12:27.339Z,34.66
2019-04-06T12:15:10.634Z,34.66
2019-04-06T12:18:09.602Z,34.74
2019-04-06T12:21:04.929Z,34.69
2019-04-06T12:24:09.646Z,34.68
2019-04-06T12:27:04.058Z,34.63
2019-04-06T12:29:53.129Z,34.65
2019-04-06T12:32:45.708Z,34.78
2019-04-06T12:35:41.045Z,34.62
2019-04-06T12:38:26.497Z,34.80
2019-04-06T12:41:25.312Z,34.66
2019-04-06T12:44:27.001Z,34.60
2019-04-06T12:47:22.326Z,34.57
2019-04-06T12:50:21.538Z,34.71
2019-04-06T12:53:06.786Z,34.62
2019-04-06T12:56:08.858Z,34.58
2019-04-06T12:59:06.339Z,34.54
2019-04-06T13:02:01.805Z,34.55
2019-04-06T13:05:06.757Z,34.64
2019-04-06T13:07:57.321Z,34.55
2019-04-06T13:10:47.329Z,34.56
2019-04-06T13:13:27.756Z,34.55
2019-04-06T13:16:32.331Z,34.53
2019-04-06T13:19:23.493Z,34.90
2019-04-06T13:22:06.683Z,34.75
2019-04-06T13:24:58.476Z,34.88
2019-04-06T13:27:38.911Z,34.79
2019-04-06T13:30:38.521Z,34.80
2019-04-06T13:33:36.981Z,34.93
2019-04-06T13:36:28.321Z,34.87
2019-04-06T13:39:09.985Z,34.99
2019-04-06T13:42:02.687Z,35.11
2019-04-06T13:44:57.143Z,35.21
2019-04-06T13:48:01.797Z,35.26
2019-04-06T13:50:41.856Z,35.10
2019-04-06T13:53:34.592Z,35.13
2019-04-06T13:56:27.545Z,35.01
2019-04-06T13:59:08.104Z,35.01
2019-04-06T14:02:16.583Z,35.08
2019-04-06T14:05:03.226Z,35.13
2019-04-06T14:08:08.069Z,35.10
2019-04-06T14:11:01.050Z,35.16
2019-04-06T14:13:52.676Z,35.24
2019-04-06T14:16:43.063Z,35.28
2019-04-06T14:19:47.953Z,35.33
2019-04-06T14:22:41.072Z,35.44
2019-04-06T14:25:21.537Z,35.30
2019-04-06T14:28:14.208Z,35.57
2019-04-06T14:31:29.043Z,35.31
2019-04-06T14:34:15.956Z,35.22
2019-04-06T14:37:02.239Z,35.50
2019-04-06T14:39:53.240Z,35.35
2019-04-06T14:42:44.927Z,35.36
2019-04-06T14:45:45.431Z,35.72
2019-04-06T14:48:26.990Z,35.86
2019-04-06T14:51:19.646Z,35.64
2019-04-06T14:54:15.269Z,35.54
2019-04-06T14:56:58.246Z,36.14
2019-04-06T14:59:57.010Z,35.67
2019-04-06T15:02:54.005Z,35.58
2019-04-06T15:05:47.669Z,35.37
2019-04-06T15:08:40.325Z,35.87
2019-04-06T15:11:31.440Z,35.63
2019-04-06T15:14:36.086Z,35.43
2019-04-06T15:17:24.554Z,35.46
2019-04-06T15:20:20.439Z,35.34
2019-04-06T15:23:24.208Z,35.33
2019-04-06T15:26:30.477Z,35.92
2019-04-06T15:29:21.787Z,35.97
2019-04-06T15:32:12.914Z,36.11
2019-04-06T15:35:12.047Z,36.22
2019-04-06T15:38:12.000Z,35.79
2019-04-06T15:41:03.217Z,35.95
2019-04-06T15:44:02.079Z,36.12
2019-04-06T15:46:45.812Z,35.73
2019-04-06T15:49:56.535Z,36.16
2019-04-06T15:52:52.276Z,36.23
2019-04-06T15:55:39.913Z,35.79
2019-04-06T15:58:22.355Z,35.70
2019-04-06T16:01:14.007Z,36.26
2019-04-06T16:04:05.524Z,35.73
2019-04-06T16:07:01.843Z,35.74
2019-04-06T16:10:03.755Z,35.85
2019-04-06T16:12:45.793Z,36.33
2019-04-06T16:15:27.307Z,35.83
2019-04-06T16:18:14.326Z,36.44
2019-04-06T16:21:14.340Z,36.05
2019-04-06T16:24:03.052Z,35.99
2019-04-06T16:26:51.748Z,36.07
2019-04-06T16:29:49.281Z,36.08
2019-04-06T16:32:41.853Z,36.17
2019-04-06T16:35:32.140Z,37.01
2019-04-06T16:38:36.999Z,36.71
2019-04-06T16:41:28.685Z,36.56
2019-04-06T16:44:21.279Z,36.54
2019-04-06T16:47:12.671Z,36.81
2019-04-06T16:50:03.869Z,36.68
2019-04-06T16:53:05.303Z,37.39
2019-04-06T16:55:53.526Z,37.40
2019-04-06T16:58:58.544Z,37.14
2019-04-06T17:01:36.844Z,37.61
2019-04-06T17:04:26.888Z,37.29
2019-04-06T17:07:28.540Z,37.80
2019-04-06T17:10:21.852Z,37.87
2019-04-06T17:13:29.793Z,37.97
2019-04-06T17:16:21.553Z,37.77
2019-04-06T17:19:20.294Z,37.86
2019-04-06T17:22:22.139Z,37.70
2019-04-06T17:25:03.868Z,37.82
2019-04-06T17:27:54.966Z,37.65
2019-04-06T17:30:53.745Z,37.60
2019-04-06T17:33:40.319Z,38.03
2019-04-06T17:36:31.445Z,37.79
2019-04-06T17:39:13.905Z,37.53
2019-04-06T17:42:02.203Z,37.90
2019-04-06T17:44:53.430Z,37.58
2019-04-06T17:47:45.195Z,38.41
2019-04-06T17:50:37.885Z,37.73
2019-04-06T17:53:26.253Z,37.85
2019-04-06T17:56:18.182Z,37.45
2019-04-06T17:59:26.794Z,37.17
2019-04-06T18:02:22.232Z,37.34
2019-04-06T18:05:14.918Z,38.07
2019-04-06T18:08:06.038Z,37.86
2019-04-06T18:10:55.700Z,38.91
2019-04-06T18:13:57.670Z,38.97
2019-04-06T18:16:35.216Z,38.18
2019-04-06T18:19:09.055Z,38.23
2019-04-06T18:21:42.773Z,38.72
2019-04-06T18:24:16.922Z,38.33
2019-04-06T18:26:50.730Z,38.07
2019-04-06T18:29:25.394Z,38.03
2019-04-06T18:32:14.887Z,37.99
2019-04-06T18:34:48.741Z,37.92
2019-04-06T18:37:42.573Z,38.16
2019-04-06T18:40:22.680Z,37.66
2019-04-06T18:42:56.432Z,37.85
2019-04-06T18:45:32.524Z,37.69
2019-04-06T18:48:06.717Z,37.71
2019-04-06T18:50:40.754Z,38.09
2019-04-06T18:53:15.679Z,38.30
2019-04-06T18:55:49.544Z,39.14
2019-04-06T18:58:23.286Z,38.89
2019-04-06T19:00:57.354Z,38.43
2019-04-06T19:03:31.496Z,38.52
2019-04-06T19:06:05.390Z,38.86
2019-04-06T19:08:39.277Z,39.26
2019-04-06T19:11:13.056Z,39.65
2019-04-06T19:13:46.882Z,39.75
2019-04-06T19:16:20.744Z,40.75
2019-04-06T19:18:55.771Z,39.84
2019-04-06T19:21:30.884Z,39.77
2019-04-06T19:24:05.466Z,39.79
2019-04-06T19:26:39.314Z,40.15
2019-04-06T19:29:13.657Z,40.28
2019-04-06T19:31:47.889Z,40.40
2019-04-06T19:34:21.918Z,40.62
2019-04-06T19:36:55.729Z,40.72
2019-04-06T19:39:29.622Z,40.75
2019-04-06T19:42:03.866Z,40.89
2019-04-06T19:44:37.888Z,40.93
2019-04-06T19:47:12.474Z,40.88
2019-04-06T19:49:46.619Z,41.00
2019-04-06T19:52:20.616Z,41.03
2019-04-06T19:54:54.335Z,40.89
2019-04-06T19:57:28.285Z,40.91
2019-04-06T20:00:02.853Z,40.88
2019-04-06T20:02:36.942Z,40.94
2019-04-06T20:05:10.889Z,40.63
2019-04-06T20:07:44.611Z,40.83
2019-04-06T20:10:18.544Z,40.97
2019-04-06T20:12:52.465Z,40.65
2019-04-06T20:15:26.343Z,40.48
2019-04-06T20:18:00.024Z,40.88
2019-04-06T20:20:34.244Z,40.78
2019-04-06T20:23:08.483Z,40.95
2019-04-06T20:25:42.673Z,40.89
2019-04-06T20:28:16.444Z,40.87
2019-04-06T20:30:50.234Z,40.94
2019-04-06T20:33:23.875Z,40.50
2019-04-06T20:35:57.631Z,40.72
2019-04-06T20:38:31.371Z,40.83
2019-04-06T20:41:05.290Z,40.66
2019-04-06T20:43:39.484Z,40.86
2019-04-06T20:46:13.386Z,40.91
2019-04-06T20:48:47.295Z,40.83
2019-04-06T20:51:21.480Z,40.62
2019-04-06T20:53:55.180Z,40.79
2019-04-06T20:56:29.801Z,40.70
2019-04-06T20:59:03.952Z,40.70
2019-04-06T21:01:38.237Z,40.67
2019-04-06T21:04:12.111Z,40.79
2019-04-06T21:06:45.867Z,40.68
2019-04-06T21:09:20.011Z,40.54
2019-04-06T21:11:55.842Z,40.60
2019-04-06T21:14:30.007Z,40.80
2019-04-06T21:17:04.209Z,40.76
2019-04-06T21:19:37.915Z,40.70
2019-04-06T21:22:12.424Z,40.77
2019-04-06T21:24:46.304Z,40.76
2019-04-06T21:27:20.047Z,40.71
2019-04-06T21:29:54.364Z,40.59
2019-04-06T21:32:28.283Z,40.68
2019-04-06T21:35:04.308Z,40.80
2019-04-06T21:37:38.323Z,40.81
2019-04-06T21:40:12.266Z,40.76
2019-04-06T21:42:46.076Z,40.72
2019-04-06T21:45:19.850Z,40.65
2019-04-06T21:47:54.099Z,40.61
2019-04-06T21:50:27.863Z,40.61
2019-04-06T21:53:01.627Z,40.57
2019-04-06T21:55:35.659Z,40.65
2019-04-06T21:58:09.701Z,40.62
2019-04-06T22:00:51.556Z,40.53
2019-04-06T22:03:25.872Z,40.59
2019-04-06T22:05:59.814Z,40.49
2019-04-06T22:08:33.598Z,40.46
2019-04-06T22:11:07.553Z,40.28
2019-04-06T22:13:41.895Z,40.29
2019-04-06T22:16:15.676Z,40.39
2019-04-06T22:18:49.821Z,40.05
2019-04-06T22:21:23.868Z,40.04
2019-04-06T22:23:57.896Z,39.64
2019-04-06T22:26:32.822Z,39.34
2019-04-06T22:29:06.778Z,39.77
2019-04-06T22:31:40.534Z,39.99
2019-04-06T22:34:14.338Z,39.97
2019-04-06T22:36:48.051Z,39.81
2019-04-06T22:39:21.857Z,39.64
2019-04-06T22:41:55.854Z,39.81
2019-04-06T22:44:29.522Z,39.94
2019-04-06T22:47:03.559Z,40.04
2019-04-06T22:49:37.600Z,40.02
2019-04-06T22:52:12.818Z,39.93
2019-04-06T22:54:46.666Z,39.68
2019-04-06T22:57:20.488Z,39.78
2019-04-06T22:59:54.344Z,39.82
2019-04-06T23:02:29.839Z,39.91
2019-04-06T23:05:14.137Z,39.93
2019-04-06T23:07:48.362Z,39.90
2019-04-06T23:10:22.457Z,39.89
2019-04-06T23:12:56.488Z,39.86
2019-04-06T23:15:30.244Z,39.81
2019-04-06T23:18:04.651Z,39.82
2019-04-06T23:20:38.378Z,39.77
2019-04-06T23:23:12.139Z,39.77
2019-04-06T23:25:45.857Z,39.76
2019-04-06T23:28:19.590Z,39.68
2019-04-06T23:30:53.554Z,39.64
2019-04-06T23:33:28.037Z,39.63
2019-04-06T23:36:02.147Z,39.62
2019-04-06T23:38:36.037Z,39.57
2019-04-06T23:41:10.468Z,39.57
2019-04-06T23:43:44.766Z,39.54
2019-04-06T23:46:19.021Z,39.51
2019-04-06T23:48:52.851Z,39.52
2019-04-06T23:51:26.753Z,39.48
2019-04-06T23:54:00.388Z,39.45
2019-04-06T23:56:35.073Z,39.43
2019-04-06T23:59:08.917Z,39.41
